LFSN/ENC METAR and TAF weather

Enter ICAO airport designator
Station Type Date Time Source
LFSN METAR 2023/01/30 11:30 UTC NOAA

LFSN 301130Z AUTO 24009KT 200V270 9999 -RA OVC010/// ///TCU 03/02 Q1024


Station Type Date Time Source
LFSN Decoded METAR 2023/01/30 11:30 UTC NOAA

Nancy / Essey, France (LFSN) 48-41N 006-13E 217M
Jan 30, 2023 - 06:30 AM EST / 2023.01.30 1130 UTC
Wind: from the WSW (240 degrees) at 10 MPH (9 KT) (direction variable):0
Visibility: greater than 7 mile(s):0
Sky conditions: overcast
Weather: light rain; Towering cumulus clouds observed
Temperature: 37 F (3 C)
Dew Point: 35 F (2 C)
Relative Humidity: 93%
Pressure (altimeter): 30.24 in. Hg (1024 hPa)
ob: LFSN 301130Z AUTO 24009KT 200V270 9999 -RA OVC010/// ///TCU 03/02 Q1024
cycle: 11

Station Type Date Time Source
LFSN TAF 2012/03/14 16:58 UTC NOAA

TAF LFSN 141600Z 1416/1512 CNL

Example: see airport list